Camp Crook, South Dakota
Current Conditions -  °F | °C
As of 12:51 PM on Saturday 25 Oct 2014 (Local Time) from KBHK Reporting Station
Clear Clear  
Wind Chill: 64°   Ceiling: Unl
Heat Index: 64°   Visibility: 10mi
Dew Point: 30°   Wind: 21mph
Humidity: 28%   Direction: 130°SE
Pressure: 30.03"   Gusts: 25mph
Location:  45.55°N, 103.97°W
Report Text: KBHK 251851Z AUTO 13018G22KT 10SM CLR 18/M01 A3003 RMK AO2 SLP168 T01781011
Loading
Personal Weather Stations






























Interactive Weather Map
Tropical Storm Tracking
New forecast layout! Learn more

10-Day Weather Forecast

Advertisements
Track Severe Weather on mobile